Time;durP1;ratioP1;P1;durP2;ratioP2;P2;SDS_P1;SDS_P2;PMS_P1;PMS_P2;Temp;Humidity;BMP_temperature;BMP_pressure;BME280_temperature;BME280_humidity;BME280_pressure;Samples;Min_cycle;Max_cycle;Signal;HPM_P1;HPM_P2
2022/05/11 00:02:01;;;;;;;12.20;10.13;;;11.80;99.90;;;;;;5024311;28;20274;-40
2022/05/11 00:04:28;;;;;;;13.63;9.70;;;11.70;99.90;;;;;;5021371;28;20212;-41
2022/05/11 00:06:55;;;;;;;12.87;9.13;;;11.70;99.90;;;;;;5011292;28;20235;-42
2022/05/11 00:09:21;;;;;;;13.27;10.10;;;11.80;99.90;;;;;;5033991;28;20664;-40
2022/05/11 00:11:49;;;;;;;12.03;9.47;;;11.80;99.90;;;;;;5021375;28;20267;-43
2022/05/11 00:14:16;;;;;;;12.03;9.03;;;11.80;99.90;;;;;;5024183;28;20200;-40
2022/05/11 00:16:44;;;;;;;10.50;9.23;;;11.80;99.90;;;;;;5020215;28;20212;-46
2022/05/11 00:19:11;;;;;;;11.97;9.30;;;11.80;99.90;;;;;;5024323;28;20192;-43
2022/05/11 00:21:38;;;;;;;11.87;9.37;;;11.80;99.90;;;;;;5017585;28;20219;-40
2022/05/11 00:24:06;;;;;;;14.17;9.20;;;11.80;99.90;;;;;;5015989;28;20676;-41
2022/05/11 00:26:33;;;;;;;11.17;8.70;;;11.70;99.90;;;;;;5032969;28;20223;-40
2022/05/11 00:29:00;;;;;;;10.67;8.77;;;11.80;99.90;;;;;;5025510;28;20195;-43
2022/05/11 00:31:27;;;;;;;12.17;9.60;;;11.80;99.90;;;;;;5022215;28;20192;-40
2022/05/11 00:33:55;;;;;;;10.27;8.67;;;11.80;99.90;;;;;;5021929;28;20192;-41
2022/05/11 00:36:22;;;;;;;15.00;10.57;;;11.80;99.90;;;;;;5019928;28;20224;-41
2022/05/11 00:38:48;;;;;;;11.40;9.73;;;11.80;99.90;;;;;;5017595;28;20253;-41
2022/05/11 00:41:15;;;;;;;11.23;9.50;;;11.80;99.90;;;;;;5035160;28;20202;-45
2022/05/11 00:43:51;;;;;;;12.27;9.37;;;11.80;99.90;;;;;;5019868;28;20192;-43
2022/05/11 00:46:22;;;;;;;12.50;10.33;;;11.80;99.90;;;;;;5013994;28;20216;-40
2022/05/11 00:51:42;;;;;;;13.53;9.80;;;11.80;99.90;;;;;;5008471;28;20566;-41
2022/05/11 00:54:10;;;;;;;10.07;9.00;;;11.70;99.90;;;;;;5014353;28;20212;-43
2022/05/11 00:56:42;;;;;;;13.57;9.13;;;11.80;99.90;;;;;;5026549;28;20232;-44
2022/05/11 00:59:13;;;;;;;13.80;10.07;;;11.90;99.90;;;;;;5029689;28;20689;-43
2022/05/11 01:01:41;;;;;;;10.73;9.57;;;11.80;99.90;;;;;;5019311;28;20416;-41
2022/05/11 01:04:10;;;;;;;11.63;9.97;;;11.90;99.90;;;;;;5023463;28;20257;-40
2022/05/11 01:06:42;;;;;;;11.00;9.47;;;11.90;99.90;;;;;;5015979;28;20700;-40
2022/05/11 01:09:10;;;;;;;12.20;9.20;;;11.90;99.90;;;;;;5004351;28;20257;-41
2022/05/11 01:11:39;;;;;;;12.33;9.27;;;11.90;99.90;;;;;;5032357;28;20278;-40
2022/05/11 01:14:08;;;;;;;12.07;8.80;;;11.80;99.90;;;;;;5023045;28;20578;-46
2022/05/11 01:16:36;;;;;;;12.77;9.87;;;11.70;99.90;;;;;;5020250;28;20227;-41
2022/05/11 01:19:05;;;;;;;11.80;9.50;;;11.80;99.90;;;;;;5023407;28;20255;-42
2022/05/11 01:21:43;;;;;;;11.23;9.27;;;11.80;99.90;;;;;;5015322;28;20687;-41
2022/05/11 01:24:27;;;;;;;11.20;8.80;;;11.80;99.90;;;;;;5028962;28;20757;-41
2022/05/11 01:26:55;;;;;;;10.40;9.33;;;11.80;99.90;;;;;;5019350;28;20238;-43
2022/05/11 01:29:22;;;;;;;12.57;9.23;;;11.80;99.90;;;;;;5023105;28;20611;-42
2022/05/11 01:31:49;;;;;;;11.40;10.03;;;11.80;99.90;;;;;;5019681;28;20219;-40
2022/05/11 01:34:21;;;;;;;10.97;9.50;;;11.80;99.90;;;;;;5023256;28;20207;-40
2022/05/11 01:36:51;;;;;;;13.93;10.07;;;11.90;99.90;;;;;;5019592;28;20266;-43
2022/05/11 01:39:18;;;;;;;10.30;9.23;;;11.90;99.90;;;;;;5019761;28;20208;-40
2022/05/11 01:41:54;;;;;;;10.80;8.73;;;12.00;99.90;;;;;;5015218;28;20254;-41
2022/05/11 01:44:22;;;;;;;11.33;9.07;;;11.90;99.90;;;;;;5018635;28;20203;-40
2022/05/11 01:46:52;;;;;;;13.67;10.70;;;11.90;99.90;;;;;;5019778;28;20211;-40
2022/05/11 01:49:19;;;;;;;14.20;10.67;;;11.90;99.90;;;;;;5023299;28;20701;-43
2022/05/11 01:51:47;;;;;;;15.97;11.77;;;11.90;99.90;;;;;;5019659;28;20266;-41
2022/05/11 01:54:14;;;;;;;11.80;10.50;;;11.90;99.90;;;;;;5022998;28;20203;-44
2022/05/11 01:56:41;;;;;;;13.07;11.33;;;11.90;99.90;;;;;;5003830;28;20485;-43
2022/05/11 01:59:09;;;;;;;15.27;11.73;;;11.90;99.90;;;;;;5008055;28;20903;-44
2022/05/11 02:01:40;;;;;;;15.87;12.17;;;11.90;99.90;;;;;;5019520;28;20196;-40
2022/05/11 02:07:49;;;;;;;15.33;11.63;;;11.90;99.90;;;;;;5022762;28;20200;-46
2022/05/11 02:09:37;;;;;;;13.50;11.27;;;11.90;99.90;;;;;;4985372;28;20208;-41
2022/05/11 02:12:04;;;;;;;15.47;11.53;;;12.00;99.90;;;;;;5007818;28;20196;-44
2022/05/11 02:14:33;;;;;;;12.97;11.37;;;12.00;99.90;;;;;;5027880;28;20203;-40
2022/05/11 02:16:59;;;;;;;14.63;11.37;;;12.00;99.90;;;;;;5021878;28;20204;-42
2022/05/11 02:19:27;;;;;;;14.37;11.07;;;12.00;99.90;;;;;;5021346;28;20208;-44
2022/05/11 02:21:53;;;;;;;14.40;11.73;;;12.00;99.90;;;;;;5020921;28;20280;-41
2022/05/11 02:24:20;;;;;;;16.13;12.07;;;11.90;99.90;;;;;;5022453;28;20246;-40
2022/05/11 02:26:47;;;;;;;17.73;12.87;;;12.00;99.90;;;;;;5009754;28;20223;-43
2022/05/11 02:29:14;;;;;;;15.97;12.63;;;12.00;99.90;;;;;;5034438;28;20191;-40
2022/05/11 02:31:42;;;;;;;16.43;13.50;;;11.90;99.90;;;;;;5018876;28;21005;-41
2022/05/11 02:35:12;;;;;;;15.53;12.83;;;11.90;99.90;;;;;;5024155;28;20533;-41
2022/05/11 02:36:56;;;;;;;21.33;14.27;;;11.90;99.90;;;;;;5024696;28;20224;-42
2022/05/11 02:39:22;;;;;;;16.67;13.77;;;12.00;99.90;;;;;;5025529;28;20687;-40
2022/05/11 02:41:49;;;;;;;17.73;15.07;;;12.00;99.90;;;;;;5023433;28;20275;-42
2022/05/11 02:44:16;;;;;;;24.80;15.73;;;11.90;99.90;;;;;;5018778;28;20210;-40
2022/05/11 02:46:44;;;;;;;22.80;15.77;;;11.90;99.90;;;;;;5023304;28;20223;-42
2022/05/11 02:49:11;;;;;;;17.80;14.23;;;12.00;99.90;;;;;;5025939;28;20215;-41
2022/05/11 02:51:38;;;;;;;22.13;15.33;;;11.90;99.90;;;;;;5022380;28;20199;-41
2022/05/11 02:54:05;;;;;;;19.00;15.07;;;11.90;99.90;;;;;;5025532;28;20283;-40
2022/05/11 02:56:32;;;;;;;21.00;15.37;;;11.90;99.90;;;;;;5028327;28;20530;-43
2022/05/11 02:58:59;;;;;;;23.83;15.87;;;12.00;99.90;;;;;;5023102;28;20208;-44
2022/05/11 03:01:26;;;;;;;21.70;14.60;;;12.00;99.90;;;;;;5033060;28;20211;-41
2022/05/11 03:03:54;;;;;;;20.33;15.63;;;12.00;99.90;;;;;;5023514;28;20906;-44
2022/05/11 03:06:21;;;;;;;18.37;14.63;;;12.00;99.90;;;;;;5025472;28;20212;-41
2022/05/11 03:08:47;;;;;;;19.70;14.47;;;12.00;99.90;;;;;;5022687;28;20218;-44
2022/05/11 03:11:15;;;;;;;16.93;14.77;;;12.00;99.90;;;;;;5025615;28;20275;-41
2022/05/11 03:13:42;;;;;;;16.03;13.23;;;12.00;99.90;;;;;;5009742;28;20263;-40
2022/05/11 03:16:09;;;;;;;17.93;14.00;;;12.10;99.90;;;;;;5029953;28;20223;-41
2022/05/11 03:18:35;;;;;;;18.10;14.17;;;12.10;99.90;;;;;;5024224;28;20262;-44
2022/05/11 03:21:04;;;;;;;18.63;14.10;;;12.10;99.90;;;;;;5025456;28;20192;-42
2022/05/11 03:23:31;;;;;;;16.53;14.17;;;12.10;99.90;;;;;;5022715;28;20226;-43
2022/05/11 03:25:57;;;;;;;19.87;14.33;;;12.10;99.90;;;;;;5021649;28;20270;-43
2022/05/11 03:28:24;;;;;;;18.17;14.70;;;12.10;99.90;;;;;;5026852;28;20215;-41
2022/05/11 03:30:52;;;;;;;20.03;15.27;;;12.10;99.90;;;;;;5005127;28;20220;-43
2022/05/11 03:36:06;;;;;;;18.83;14.13;;;12.10;99.90;;;;;;5025352;28;20223;-46
2022/05/11 03:38:33;;;;;;;18.27;13.93;;;12.10;99.90;;;;;;5017449;28;20200;-41
2022/05/11 03:41:00;;;;;;;15.67;13.60;;;12.10;99.90;;;;;;5017917;28;20613;-43
2022/05/11 03:43:26;;;;;;;17.83;13.53;;;12.10;99.90;;;;;;5013963;28;20216;-41
2022/05/11 03:45:54;;;;;;;13.07;11.67;;;12.10;99.90;;;;;;5011271;28;20220;-43
2022/05/11 03:48:20;;;;;;;16.90;13.73;;;12.20;99.90;;;;;;5026116;28;20280;-43
2022/05/11 03:50:47;;;;;;;18.50;13.03;;;12.20;99.90;;;;;;5031463;28;20195;-47
2022/05/11 03:53:15;;;;;;;14.73;13.23;;;12.20;99.90;;;;;;5021346;28;20265;-41
2022/05/11 03:55:42;;;;;;;16.43;13.33;;;12.20;99.90;;;;;;5022352;28;20207;-46
2022/05/11 03:58:10;;;;;;;19.63;14.03;;;12.20;99.90;;;;;;5020112;28;20654;-42
2022/05/11 04:00:37;;;;;;;15.50;13.90;;;12.10;99.90;;;;;;5014178;28;20196;-41
2022/05/11 04:03:04;;;;;;;18.77;14.23;;;12.10;99.90;;;;;;5020924;28;20211;-40
2022/05/11 04:05:32;;;;;;;15.10;13.37;;;12.10;99.90;;;;;;5015277;28;20262;-43
2022/05/11 04:07:59;;;;;;;14.73;13.17;;;12.10;99.90;;;;;;5014984;28;20608;-40
2022/05/11 04:10:27;;;;;;;16.87;14.27;;;12.10;99.90;;;;;;5019646;28;20192;-40
2022/05/11 04:12:54;;;;;;;14.73;13.10;;;12.20;99.90;;;;;;4989361;28;20286;-40
2022/05/11 04:15:21;;;;;;;16.07;13.47;;;12.20;99.90;;;;;;5018790;28;20254;-41
2022/05/11 04:17:47;;;;;;;15.53;12.93;;;12.20;99.90;;;;;;5012435;28;21999;-40
2022/05/11 04:20:17;;;;;;;15.00;13.27;;;12.20;99.90;;;;;;5015852;28;20244;-40
2022/05/11 04:22:44;;;;;;;15.90;14.13;;;12.30;99.90;;;;;;5025909;28;20931;-41
2022/05/11 04:25:15;;;;;;;18.67;13.27;;;12.30;99.90;;;;;;5021334;28;20212;-41
2022/05/11 04:27:46;;;;;;;16.77;14.70;;;12.30;99.90;;;;;;5016416;28;20231;-41
2022/05/11 04:30:15;;;;;;;18.93;13.73;;;12.30;99.90;;;;;;5010785;28;20594;-42
2022/05/11 04:32:42;;;;;;;16.73;14.83;;;12.30;99.90;;;;;;5021182;28;20195;-41
2022/05/11 04:35:10;;;;;;;16.80;14.93;;;12.30;99.90;;;;;;5014542;28;20230;-41
2022/05/11 04:37:37;;;;;;;17.67;14.83;;;12.30;99.90;;;;;;5023093;28;20196;-41
2022/05/11 04:40:05;;;;;;;17.20;15.20;;;12.40;99.90;;;;;;5023900;28;20215;-40
2022/05/11 04:42:32;;;;;;;19.13;15.10;;;12.40;99.90;;;;;;5019777;28;20196;-40
2022/05/11 04:45:01;;;;;;;16.37;13.77;;;12.40;99.90;;;;;;5015879;28;20240;-40
2022/05/11 04:47:27;;;;;;;20.63;15.10;;;12.40;99.90;;;;;;5026926;28;20680;-42
2022/05/11 04:49:54;;;;;;;20.97;14.17;;;12.40;99.90;;;;;;5008787;28;20253;-44
2022/05/11 04:52:21;;;;;;;20.10;14.83;;;12.40;99.90;;;;;;5025992;28;20207;-41
2022/05/11 04:54:49;;;;;;;17.33;13.27;;;12.50;99.90;;;;;;5021681;28;20196;-43
2022/05/11 04:57:18;;;;;;;15.27;12.93;;;12.50;99.90;;;;;;5015476;28;20206;-41
2022/05/11 04:59:44;;;;;;;15.97;14.10;;;12.50;99.90;;;;;;5018625;28;20294;-40
2022/05/11 05:02:17;;;;;;;20.40;14.00;;;12.50;99.90;;;;;;5024082;28;20203;-41
2022/05/11 05:04:44;;;;;;;19.07;13.90;;;12.60;99.90;;;;;;5013477;28;20920;-41
2022/05/11 05:07:11;;;;;;;13.83;12.27;;;12.60;99.90;;;;;;5011504;28;20214;-42
2022/05/11 05:09:38;;;;;;;20.70;14.07;;;12.60;99.90;;;;;;5019281;28;20204;-41
2022/05/11 05:12:07;;;;;;;19.13;14.10;;;12.70;99.90;;;;;;5022193;28;20208;-43
2022/05/11 05:14:34;;;;;;;19.33;13.87;;;12.70;99.90;;;;;;5019476;28;20992;-44
2022/05/11 05:17:01;;;;;;;15.80;13.87;;;12.70;99.90;;;;;;5026871;28;20204;-42
2022/05/11 05:19:30;;;;;;;17.37;13.17;;;12.70;99.90;;;;;;5019739;28;20208;-41
2022/05/11 05:21:57;;;;;;;16.27;13.67;;;12.80;99.90;;;;;;5020438;28;20702;-43
2022/05/11 05:24:24;;;;;;;17.30;13.93;;;12.80;99.90;;;;;;5023932;28;20270;-43
2022/05/11 05:26:51;;;;;;;15.73;13.80;;;12.80;99.90;;;;;;5014569;28;20212;-44
2022/05/11 05:32:02;;;;;;;15.10;12.87;;;12.90;99.90;;;;;;5023142;28;20188;-42
2022/05/11 05:34:31;;;;;;;17.33;14.10;;;12.90;99.90;;;;;;5018921;28;20192;-42
2022/05/11 05:36:58;;;;;;;16.70;14.43;;;12.90;99.90;;;;;;5007700;28;20204;-44
2022/05/11 05:39:24;;;;;;;18.00;13.90;;;13.00;99.90;;;;;;5026247;28;20218;-41
2022/05/11 05:41:52;;;;;;;16.53;14.23;;;13.00;99.90;;;;;;5011719;28;20902;-44
2022/05/11 05:44:19;;;;;;;15.00;13.37;;;13.10;99.90;;;;;;5019868;28;20266;-42
2022/05/11 05:46:46;;;;;;;15.53;13.37;;;13.10;99.90;;;;;;5020723;28;20301;-41
2022/05/11 05:49:13;;;;;;;17.00;12.63;;;13.20;99.90;;;;;;5010966;28;20567;-41
2022/05/11 05:51:42;;;;;;;18.43;13.80;;;13.20;99.90;;;;;;5004418;28;20223;-41
2022/05/11 05:54:10;;;;;;;16.20;14.47;;;13.20;99.90;;;;;;5025429;28;20192;-41
2022/05/11 05:56:37;;;;;;;14.53;13.03;;;13.30;99.90;;;;;;5006741;28;20299;-41
2022/05/11 05:59:09;;;;;;;19.73;13.73;;;13.30;99.90;;;;;;5031114;28;20196;-44
2022/05/11 06:01:38;;;;;;;19.53;14.00;;;13.30;99.90;;;;;;5019077;28;20192;-43
2022/05/11 06:04:06;;;;;;;15.17;12.67;;;13.30;99.90;;;;;;5019563;28;20216;-42
2022/05/11 06:06:33;;;;;;;17.57;14.13;;;13.40;99.90;;;;;;5008823;28;20374;-41
2022/05/11 06:09:01;;;;;;;15.93;13.70;;;13.40;99.90;;;;;;5031063;28;20614;-44
2022/05/11 06:11:28;;;;;;;16.93;12.63;;;13.50;99.90;;;;;;5020018;28;20215;-41
2022/05/11 06:13:55;;;;;;;15.00;13.27;;;13.50;99.90;;;;;;5025720;28;20204;-46
2022/05/11 06:16:22;;;;;;;15.00;13.43;;;13.50;99.90;;;;;;5011897;28;20750;-42
2022/05/11 06:18:49;;;;;;;18.43;13.27;;;13.50;99.90;;;;;;5022345;28;20192;-41
2022/05/11 06:21:16;;;;;;;18.27;14.23;;;13.60;99.90;;;;;;5019366;28;20232;-41
2022/05/11 06:23:44;;;;;;;14.83;13.13;;;13.70;99.90;;;;;;5010675;28;20216;-41
2022/05/11 06:26:13;;;;;;;14.97;12.87;;;13.70;99.90;;;;;;5022808;28;20212;-41
2022/05/11 06:28:41;;;;;;;17.10;13.50;;;13.70;99.90;;;;;;5026937;28;20687;-42
2022/05/11 06:31:08;;;;;;;15.50;13.87;;;13.80;99.90;;;;;;5024803;28;20242;-41
2022/05/11 06:33:35;;;;;;;15.63;12.87;;;13.80;99.90;;;;;;5025741;28;20740;-42
2022/05/11 06:36:03;;;;;;;16.27;14.03;;;13.80;99.90;;;;;;5022813;28;20216;-42
2022/05/11 06:38:29;;;;;;;15.37;13.77;;;13.80;99.90;;;;;;5015527;28;20210;-43
2022/05/11 06:40:57;;;;;;;14.73;12.80;;;13.90;99.90;;;;;;5033044;28;20203;-46
2022/05/11 06:43:26;;;;;;;14.63;13.03;;;14.00;99.90;;;;;;5020893;28;20620;-41
2022/05/11 06:45:52;;;;;;;18.60;13.83;;;14.00;99.90;;;;;;5021493;28;20224;-41
2022/05/11 06:48:19;;;;;;;20.47;14.03;;;14.10;99.90;;;;;;5018595;28;20232;-42
2022/05/11 06:50:46;;;;;;;14.87;13.10;;;14.10;99.90;;;;;;5023818;28;20246;-42
2022/05/11 06:53:14;;;;;;;15.60;12.90;;;14.10;99.90;;;;;;5012742;28;20205;-46
2022/05/11 07:01:15;;;;;;;16.30;12.70;;;14.30;99.90;;;;;;5024755;28;20192;-42
2022/05/11 07:03:42;;;;;;;16.73;13.13;;;14.40;99.90;;;;;;5018906;28;20231;-41
2022/05/11 07:06:09;;;;;;;14.70;12.43;;;14.40;99.90;;;;;;5010691;28;20216;-41
2022/05/11 07:08:38;;;;;;;14.70;11.93;;;14.50;99.90;;;;;;5007787;28;20224;-41
2022/05/11 07:13:55;;;;;;;15.17;11.67;;;14.50;99.90;;;;;;5021386;28;20280;-44
2022/05/11 07:16:23;;;;;;;13.33;12.00;;;14.60;99.90;;;;;;5010600;28;20278;-42
2022/05/11 07:18:50;;;;;;;13.63;12.23;;;14.60;99.90;;;;;;5022759;28;20235;-43
2022/05/11 07:21:17;;;;;;;15.27;11.57;;;14.70;99.90;;;;;;5020428;28;20200;-42
2022/05/11 07:23:46;;;;;;;14.17;12.07;;;14.70;99.90;;;;;;5012572;28;20266;-43
2022/05/11 07:26:13;;;;;;;13.53;10.80;;;14.70;99.90;;;;;;5022523;28;20231;-41
2022/05/11 07:28:40;;;;;;;15.20;11.33;;;14.70;99.90;;;;;;5010608;28;20305;-42
2022/05/11 07:31:09;;;;;;;15.10;12.23;;;14.70;99.90;;;;;;5020476;28;20212;-41
2022/05/11 07:33:36;;;;;;;13.53;10.10;;;14.70;99.90;;;;;;5018662;28;20347;-44
2022/05/11 07:36:03;;;;;;;10.53;9.57;;;14.80;99.90;;;;;;5018365;28;20242;-41
2022/05/11 07:38:30;;;;;;;12.30;9.93;;;14.80;99.90;;;;;;5028382;28;20191;-42
2022/05/11 07:40:57;;;;;;;11.37;10.17;;;14.80;99.90;;;;;;5010361;28;20204;-44
2022/05/11 07:43:23;;;;;;;12.47;9.97;;;14.80;99.90;;;;;;5017489;28;20208;-42
2022/05/11 07:45:50;;;;;;;12.43;9.87;;;14.80;99.90;;;;;;5024488;28;20563;-40
2022/05/11 07:48:21;;;;;;;9.50;8.60;;;14.80;99.90;;;;;;5012646;28;20226;-41
2022/05/11 07:50:47;;;;;;;10.90;9.47;;;14.90;99.90;;;;;;5011234;28;20288;-41
2022/05/11 07:53:14;;;;;;;12.47;9.13;;;15.00;99.90;;;;;;5015437;28;20200;-42
2022/05/11 07:55:41;;;;;;;14.20;10.43;;;15.00;99.90;;;;;;5006289;28;20213;-45
2022/05/11 08:00:55;;;;;;;10.60;8.00;;;15.00;99.90;;;;;;5016914;28;20219;-42
2022/05/11 08:03:24;;;;;;;15.03;9.87;;;15.10;99.90;;;;;;5007318;28;20203;-40
2022/05/11 08:05:51;;;;;;;15.83;9.87;;;15.10;99.90;;;;;;5022123;28;20223;-44
2022/05/11 08:08:17;;;;;;;10.27;9.07;;;15.10;99.90;;;;;;5015104;28;20204;-39
2022/05/11 08:10:46;;;;;;;11.67;8.50;;;15.10;99.90;;;;;;5022801;28;20196;-40
2022/05/11 08:13:13;;;;;;;11.43;9.63;;;15.10;99.90;;;;;;5013451;28;20215;-44
2022/05/11 08:15:43;;;;;;;10.63;8.47;;;15.20;99.90;;;;;;5021323;28;20224;-41
2022/05/11 08:18:10;;;;;;;12.13;8.73;;;15.20;99.90;;;;;;5006748;28;20200;-39
2022/05/11 08:20:43;;;;;;;10.87;8.37;;;15.20;99.90;;;;;;5019571;28;20198;-42
2022/05/11 08:23:10;;;;;;;11.20;8.53;;;15.20;99.90;;;;;;5022049;28;20656;-39
2022/05/11 08:25:39;;;;;;;8.97;7.90;;;15.20;99.90;;;;;;5023476;28;20217;-41
2022/05/11 08:28:10;;;;;;;10.10;7.87;;;15.30;99.90;;;;;;5014074;28;20246;-40
2022/05/11 08:33:23;;;;;;;9.23;8.00;;;15.40;99.90;;;;;;5012463;28;20919;-39
2022/05/11 08:35:54;;;;;;;10.97;8.37;;;15.50;99.90;;;;;;5019271;28;20224;-40
2022/05/11 08:38:22;;;;;;;11.03;8.50;;;15.60;99.90;;;;;;5015235;28;20759;-40
2022/05/11 08:40:53;;;;;;;10.87;8.07;;;15.60;99.90;;;;;;5023603;28;20203;-45
2022/05/11 08:43:20;;;;;;;10.20;9.03;;;15.80;99.90;;;;;;5011832;28;20239;-42
2022/05/11 08:45:54;;;;;;;12.27;8.17;;;15.90;99.90;;;;;;5028139;28;20227;-42
2022/05/11 08:48:29;;;;;;;11.17;7.67;;;16.00;99.90;;;;;;5025161;28;20202;-39
2022/05/11 08:50:57;;;;;;;7.83;7.07;;;16.10;99.90;;;;;;5000145;28;20207;-40
2022/05/11 08:53:34;;;;;;;9.40;7.67;;;16.20;99.90;;;;;;5019109;28;20208;-43
2022/05/11 08:56:06;;;;;;;13.30;8.30;;;16.20;99.90;;;;;;5023243;28;20215;-46
2022/05/11 08:58:37;;;;;;;12.03;7.80;;;16.30;99.90;;;;;;5004730;28;20254;-39
2022/05/11 09:01:07;;;;;;;10.73;7.90;;;16.40;99.90;;;;;;5017397;28;20200;-41
2022/05/11 09:03:37;;;;;;;9.97;7.30;;;16.50;99.90;;;;;;5027480;28;20199;-41
2022/05/11 09:06:13;;;;;;;11.87;7.93;;;16.50;99.90;;;;;;5023894;28;20230;-39
2022/05/11 09:08:40;;;;;;;8.27;7.30;;;16.60;99.90;;;;;;5019066;28;20619;-41
2022/05/11 09:11:11;;;;;;;8.70;7.80;;;16.70;99.90;;;;;;5020232;28;20715;-41
2022/05/11 09:13:39;;;;;;;9.10;8.17;;;16.70;99.90;;;;;;5007699;28;20203;-41
2022/05/11 09:16:06;;;;;;;9.33;7.73;;;16.70;99.90;;;;;;5019358;28;20216;-39
2022/05/11 09:18:39;;;;;;;9.70;8.00;;;16.70;99.90;;;;;;5017506;28;20474;-42
2022/05/11 09:21:19;;;;;;;11.03;8.43;;;16.80;99.90;;;;;;5014853;28;20204;-39
2022/05/11 09:23:59;;;;;;;8.93;7.53;;;16.80;99.90;;;;;;5017360;28;20204;-42
2022/05/11 09:26:31;;;;;;;9.73;8.53;;;16.90;99.90;;;;;;5014841;28;20214;-39
2022/05/11 09:29:13;;;;;;;11.37;8.67;;;17.10;99.90;;;;;;5014576;28;20231;-45
2022/05/11 09:31:40;;;;;;;11.00;7.57;;;17.20;99.90;;;;;;5024748;28;20207;-41
2022/05/11 09:34:08;;;;;;;10.80;7.87;;;17.20;99.90;;;;;;5017304;28;20644;-39
2022/05/11 09:36:37;;;;;;;10.93;7.97;;;17.20;99.90;;;;;;5018405;28;20227;-43
2022/05/11 09:39:12;;;;;;;9.30;8.10;;;17.30;99.90;;;;;;5021923;28;20207;-40
2022/05/11 09:41:41;;;;;;;13.90;8.60;;;17.40;99.90;;;;;;5020983;28;20218;-43
2022/05/11 09:44:19;;;;;;;9.27;7.87;;;17.50;99.90;;;;;;5022613;28;20203;-40
2022/05/11 09:46:46;;;;;;;8.23;7.17;;;17.40;99.90;;;;;;5027186;28;20243;-45
2022/05/11 09:49:26;;;;;;;7.43;6.67;;;17.30;99.90;;;;;;5021825;28;20258;-39
2022/05/11 09:51:56;;;;;;;10.13;7.03;;;17.20;99.90;;;;;;5024756;28;20200;-40
2022/05/11 09:54:33;;;;;;;8.00;7.00;;;17.10;99.90;;;;;;5018273;28;20226;-42
2022/05/11 09:57:04;;;;;;;6.77;6.10;;;17.20;99.90;;;;;;5019644;28;20214;-39
2022/05/11 09:59:34;;;;;;;8.13;7.07;;;17.10;99.90;;;;;;5038590;28;20204;-42
2022/05/11 10:02:18;;;;;;;8.70;7.50;;;17.20;99.90;;;;;;5014816;28;20204;-42
2022/05/11 10:04:51;;;;;;;11.50;7.43;;;17.20;99.90;;;;;;5018986;28;20218;-40
2022/05/11 10:07:20;;;;;;;10.93;7.80;;;17.20;99.90;;;;;;5022290;28;20196;-40
2022/05/11 10:09:53;;;;;;;7.90;6.93;;;17.20;99.90;;;;;;5025361;28;20556;-44
2022/05/11 10:12:24;;;;;;;9.13;7.20;;;17.30;99.90;;;;;;5018312;28;20206;-48
2022/05/11 10:23:20;;;;;;;8.90;6.90;;;18.00;99.90;;;;;;5021491;28;20624;-40
2022/05/11 10:25:50;;;;;;;7.20;6.50;;;18.10;99.90;;;;;;5007921;28;20220;-44
2022/05/11 10:28:27;;;;;;;8.03;6.20;;;18.10;99.90;;;;;;5030862;28;20199;-40
2022/05/11 10:30:59;;;;;;;7.33;5.53;;;18.10;99.90;;;;;;5025908;28;20195;-40
2022/05/11 10:33:44;;;;;;;7.77;6.33;;;18.20;99.90;;;;;;5011624;28;20200;-41
2022/05/11 10:36:19;;;;;;;6.40;5.13;;;18.20;99.90;;;;;;5027026;28;20304;-40
2022/05/11 10:39:02;;;;;;;7.90;6.03;;;18.30;99.90;;;;;;5012434;28;20208;-40
2022/05/11 10:41:34;;;;;;;6.27;4.53;;;18.40;99.90;;;;;;5022752;28;20576;-45
2022/05/11 10:44:07;;;;;;;5.33;4.53;;;18.70;99.90;;;;;;5019318;28;20208;-40
2022/05/11 10:46:39;;;;;;;6.80;4.90;;;18.80;99.90;;;;;;5021304;28;20277;-40
2022/05/11 10:49:21;;;;;;;7.77;4.83;;;19.00;99.90;;;;;;5014967;28;20287;-40
2022/05/11 10:51:54;;;;;;;6.00;4.57;;;19.20;99.90;;;;;;5018102;28;20572;-40
2022/05/11 10:54:29;;;;;;;5.20;4.33;;;19.30;99.90;;;;;;5020214;28;20193;-43
2022/05/11 10:57:06;;;;;;;6.10;4.00;;;19.60;99.90;;;;;;5017273;28;20273;-41
2022/05/11 10:59:55;;;;;;;5.10;3.87;;;19.80;99.90;;;;;;5019203;28;20680;-40
2022/05/11 11:02:56;;;;;;;5.60;3.70;;;20.10;99.90;;;;;;5022310;28;20204;-41
2022/05/11 11:05:29;;;;;;;5.47;4.23;;;20.30;99.90;;;;;;5017787;28;20290;-41
2022/05/11 11:08:08;;;;;;;5.50;3.93;;;20.50;99.90;;;;;;5021608;28;20212;-43
2022/05/11 11:10:46;;;;;;;5.67;4.20;;;20.40;99.90;;;;;;5019231;28;20226;-40
2022/05/11 11:13:37;;;;;;;6.43;5.30;;;20.40;99.90;;;;;;5036266;28;20196;-42
2022/05/11 11:16:05;;;;;;;7.33;4.50;;;20.50;99.90;;;;;;5023858;28;20227;-40
2022/05/11 11:18:35;;;;;;;9.97;5.30;;;20.60;99.90;;;;;;5005090;28;20200;-40
2022/05/11 11:21:02;;;;;;;10.37;5.03;;;20.60;99.90;;;;;;5027407;28;20196;-44
2022/05/11 11:23:35;;;;;;;5.47;3.77;;;20.40;99.90;;;;;;5016372;28;20203;-41
2022/05/11 11:26:07;;;;;;;6.40;4.67;;;20.20;99.90;;;;;;5020209;28;20961;-42
2022/05/11 11:29:04;;;;;;;6.03;4.10;;;20.00;99.90;;;;;;5016314;28;20226;-42
2022/05/11 11:31:31;;;;;;;6.83;4.23;;;19.90;99.90;;;;;;5021097;28;20563;-42
2022/05/11 11:34:22;;;;;;;7.80;5.13;;;20.00;99.90;;;;;;5001399;28;20970;-41
2022/05/11 11:36:49;;;;;;;7.43;4.43;;;20.20;99.90;;;;;;5016107;28;20278;-46
2022/05/11 11:39:48;;;;;;;5.43;4.50;;;20.30;99.90;;;;;;5010368;28;20219;-46
2022/05/11 11:42:32;;;;;;;5.70;5.10;;;20.40;99.80;;;;;;5006530;28;20207;-43
2022/05/11 11:44:58;;;;;;;8.90;5.60;;;20.40;99.90;;;;;;5021326;28;20314;-44
2022/05/11 11:47:37;;;;;;;6.60;5.43;;;20.30;99.90;;;;;;5022282;28;20188;-43
2022/05/11 11:50:13;;;;;;;8.13;5.27;;;20.30;99.70;;;;;;5009444;28;20218;-42
2022/05/11 11:52:41;;;;;;;5.37;4.70;;;20.50;99.90;;;;;;5013252;28;20238;-42
2022/05/11 11:55:24;;;;;;;5.80;5.13;;;20.70;99.50;;;;;;5010120;28;20728;-42
2022/05/11 11:57:56;;;;;;;5.53;4.53;;;20.70;99.10;;;;;;5023204;28;20227;-42
2022/05/11 12:01:00;;;;;;;6.43;4.83;;;20.90;99.40;;;;;;5015863;28;20284;-42
2022/05/11 12:03:33;;;;;;;4.77;4.37;;;21.10;98.00;;;;;;5018364;28;20223;-45
2022/05/11 12:15:01;;;;;;;6.80;4.80;;;21.10;96.80;;;;;;4996396;28;20223;-44
2022/05/11 12:17:08;;;;;;;8.70;4.80;;;21.30;95.50;;;;;;5010592;28;20752;-42
2022/05/11 12:19:37;;;;;;;5.10;4.30;;;21.20;94.80;;;;;;5004416;28;20208;-42
2022/05/11 12:22:12;;;;;;;4.40;4.00;;;21.20;94.10;;;;;;5026933;28;20208;-42
2022/05/11 12:24:44;;;;;;;4.90;4.00;;;21.10;94.00;;;;;;5014023;28;20211;-45
2022/05/11 12:27:15;;;;;;;5.53;3.97;;;21.30;94.50;;;;;;5012303;28;20208;-44
2022/05/11 12:29:58;;;;;;;4.50;3.37;;;21.30;94.40;;;;;;5018798;28;20250;-46
2022/05/11 12:32:26;;;;;;;3.33;3.03;;;21.40;92.20;;;;;;5017421;28;20230;-44
2022/05/11 12:34:53;;;;;;;5.07;3.27;;;21.50;92.70;;;;;;5016252;28;20196;-43
2022/05/11 12:37:26;;;;;;;5.80;3.53;;;21.70;91.80;;;;;;5010255;28;20204;-43
2022/05/11 12:39:58;;;;;;;3.63;2.77;;;21.70;91.10;;;;;;5012114;28;20290;-45
2022/05/11 12:42:34;;;;;;;4.43;3.00;;;21.80;90.20;;;;;;5016729;28;20196;-41
2022/05/11 12:45:05;;;;;;;3.00;2.43;;;22.00;86.10;;;;;;5011326;28;20212;-43
2022/05/11 12:47:32;;;;;;;3.50;3.07;;;21.90;87.60;;;;;;5019727;28;20209;-42
2022/05/11 12:49:59;;;;;;;4.18;3.47;;;21.80;87.70;;;;;;5020241;28;20787;-43
2022/05/11 12:52:28;;;;;;;4.40;4.00;;;21.80;87.70;;;;;;5008447;28;20200;-45
2022/05/11 12:54:58;;;;;;;3.53;3.13;;;21.80;88.50;;;;;;5016265;28;20287;-41
2022/05/11 12:57:35;;;;;;;4.47;2.90;;;22.10;89.80;;;;;;5014695;28;20207;-41
2022/05/11 13:00:12;;;;;;;5.45;2.78;;;22.40;90.20;;;;;;5017658;28;20290;-45
2022/05/11 13:02:41;;;;;;;9.27;3.42;;;22.70;86.30;;;;;;5023190;28;20207;-41
2022/05/11 13:05:11;;;;;;;3.83;3.17;;;22.80;88.00;;;;;;5016155;28;20234;-43
2022/05/11 13:07:43;;;;;;;6.28;3.45;;;22.80;86.20;;;;;;5007898;28;20748;-41
2022/05/11 13:10:15;;;;;;;4.60;3.10;;;22.80;86.20;;;;;;5015608;28;20283;-43
2022/05/11 13:12:45;;;;;;;5.15;3.20;;;23.10;84.90;;;;;;5015364;28;20222;-44
2022/05/11 13:15:13;;;;;;;3.80;2.90;;;23.00;84.80;;;;;;5012233;28;20455;-43
2022/05/11 13:17:44;;;;;;;4.82;3.42;;;22.90;85.30;;;;;;5016473;28;20601;-42
2022/05/11 13:20:23;;;;;;;3.78;3.47;;;22.90;83.80;;;;;;5016325;28;20192;-40
2022/05/11 13:22:50;;;;;;;7.03;3.70;;;22.90;84.20;;;;;;5007784;28;20218;-42
2022/05/11 13:25:40;;;;;;;6.57;3.10;;;23.00;83.00;;;;;;5006688;28;20228;-42
2022/05/11 13:28:12;;;;;;;6.60;2.72;;;23.00;80.50;;;;;;5010764;28;20211;-48
2022/05/11 13:30:44;;;;;;;3.33;2.80;;;23.30;81.30;;;;;;5017358;28;20203;-46
2022/05/11 13:33:40;;;;;;;3.67;2.72;;;23.60;80.20;;;;;;5013498;28;21048;-42